Time;durP1;ratioP1;P1;durP2;ratioP2;P2;SDS_P1;SDS_P2;PMS_P1;PMS_P2;Temp;Humidity;BMP_temperature;BMP_pressure;BME280_temperature;BME280_humidity;BME280_pressure;Samples;Min_cycle;Max_cycle;Signal;HPM_P1;HPM_P2
2023/10/22 00:01:30;;;;;;;33.50;26.40;;;;;;;10.82;96.05;99714.86;109248;275;38550;-70
2023/10/22 00:04:10;;;;;;;27.40;23.90;;;;;;;10.86;96.01;99711.22;109216;275;38277;-67
2023/10/22 00:06:47;;;;;;;29.50;23.90;;;;;;;10.82;95.88;99709.80;109184;275;39675;-67
2023/10/22 00:09:25;;;;;;;27.30;23.70;;;;;;;10.81;95.48;99712.98;109116;275;40349;-70
2023/10/22 00:12:00;;;;;;;27.50;24.00;;;;;;;10.81;95.45;99716.36;109230;275;38493;-72
2023/10/22 00:14:37;;;;;;;29.10;24.10;;;;;;;10.80;95.37;99717.79;109195;275;38248;-67
2023/10/22 00:17:12;;;;;;;28.30;24.30;;;;;;;10.77;95.08;99728.21;108980;275;38388;-67
2023/10/22 00:19:47;;;;;;;27.20;23.80;;;;;;;10.73;95.04;99731.22;109215;275;38718;-71
2023/10/22 00:22:25;;;;;;;30.10;24.80;;;;;;;10.71;95.11;99727.10;109163;275;38167;-70
2023/10/22 00:24:59;;;;;;;31.40;25.80;;;;;;;10.72;95.28;99724.12;109239;275;38255;-70
2023/10/22 00:27:34;;;;;;;37.10;28.10;;;;;;;10.73;95.51;99720.39;109180;275;38895;-68
2023/10/22 00:30:13;;;;;;;50.30;33.70;;;;;;;10.74;95.61;99720.33;109185;275;38421;-67
2023/10/22 00:32:50;;;;;;;55.40;34.40;;;;;;;10.71;95.23;99718.55;109245;275;38262;-70
2023/10/22 00:35:24;;;;;;;50.70;33.90;;;;;;;10.69;95.29;99716.05;109224;275;38181;-72
2023/10/22 00:38:00;;;;;;;48.60;33.00;;;;;;;10.68;95.38;99711.75;109219;275;39361;-68
2023/10/22 00:40:39;;;;;;;42.90;31.70;;;;;;;10.67;95.22;99708.14;109222;275;38277;-67
2023/10/22 00:43:16;;;;;;;44.00;30.40;;;;;;;10.64;95.12;99707.73;109205;275;38239;-72
2023/10/22 00:45:51;;;;;;;39.20;28.70;;;;;;;10.64;95.26;99703.04;109217;275;39967;-70
2023/10/22 00:48:26;;;;;;;33.90;27.30;;;;;;;10.62;95.23;99698.77;109285;275;39670;-68
2023/10/22 00:51:02;;;;;;;34.00;26.10;;;;;;;10.63;95.34;99696.13;109193;275;39673;-67
2023/10/22 00:53:45;;;;;;;31.90;27.10;;;;;;;10.60;94.93;99695.90;109164;275;38244;-68
2023/10/22 00:56:26;;;;;;;33.40;27.10;;;;;;;10.54;94.90;99692.88;109159;275;38334;-68
2023/10/22 00:59:03;;;;;;;34.20;27.60;;;;;;;10.49;94.87;99692.80;109199;275;38304;-70
2023/10/22 01:01:37;;;;;;;32.90;25.90;;;;;;;10.42;94.97;99692.94;109148;275;38356;-71
2023/10/22 01:04:14;;;;;;;33.60;26.80;;;;;;;10.45;95.57;99689.30;108514;275;914134;-68
2023/10/22 01:06:54;;;;;;;31.10;27.00;;;;;;;10.48;95.70;99686.18;109190;275;38262;-67
2023/10/22 01:09:33;;;;;;;30.30;25.90;;;;;;;10.50;95.76;99683.68;109150;275;38586;-68
2023/10/22 01:12:09;;;;;;;29.60;24.70;;;;;;;10.52;95.93;99680.92;109166;275;39232;-67
2023/10/22 01:14:47;;;;;;;29.20;23.40;;;;;;;10.54;95.75;99677.90;109205;275;38468;-67
2023/10/22 01:17:28;;;;;;;26.90;22.80;;;;;;;10.54;95.66;99670.05;109160;275;39424;-67
2023/10/22 01:20:03;;;;;;;27.20;23.10;;;;;;;10.56;95.76;99665.76;109159;275;38253;-70
2023/10/22 01:22:48;;;;;;;28.70;23.60;;;;;;;10.55;95.50;99655.33;109191;275;38381;-68
2023/10/22 01:25:29;;;;;;;31.00;24.20;;;;;;;10.54;95.73;99653.81;109188;275;39093;-67
2023/10/22 01:28:10;;;;;;;33.90;25.30;;;;;;;10.53;95.60;99651.79;109201;275;39373;-66
2023/10/22 01:30:50;;;;;;;34.00;23.70;;;;;;;10.50;95.52;99647.05;109202;275;38755;-66
2023/10/22 01:33:28;;;;;;;31.60;22.50;;;;;;;10.53;95.91;99643.08;109239;275;39352;-70
2023/10/22 01:36:02;;;;;;;28.60;21.90;;;;;;;10.55;95.86;99636.48;109197;275;38831;-70
2023/10/22 01:38:36;;;;;;;26.80;21.60;;;;;;;10.56;95.86;99631.60;109283;275;38942;-70
2023/10/22 01:41:11;;;;;;;24.80;20.00;;;;;;;10.55;95.99;99624.64;109210;275;38362;-70
2023/10/22 01:43:48;;;;;;;27.00;20.30;;;;;;;10.55;96.28;99622.39;109259;275;38923;-70
2023/10/22 01:46:39;;;;;;;25.30;20.20;;;;;;;10.52;96.36;99619.73;109306;267;38324;-70
2023/10/22 01:49:20;;;;;;;29.90;21.80;;;;;;;10.55;96.50;99616.47;109083;275;39124;-70
2023/10/22 01:51:58;;;;;;;37.50;24.30;;;;;;;10.57;96.67;99613.02;109251;275;38252;-70
2023/10/22 01:54:35;;;;;;;34.20;22.70;;;;;;;10.58;96.63;99613.84;109393;275;38910;-67
2023/10/22 01:57:14;;;;;;;54.40;31.80;;;;;;;10.59;96.55;99614.17;109113;275;175592;-67
2023/10/22 01:59:51;;;;;;;52.70;30.90;;;;;;;10.57;96.59;99621.05;109211;275;38254;-71
2023/10/22 02:02:30;;;;;;;55.80;33.40;;;;;;;10.62;96.99;99619.94;109212;275;40000;-70
2023/10/22 02:05:04;;;;;;;71.10;36.90;;;;;;;10.64;96.77;99618.09;109184;275;38763;-70
2023/10/22 02:07:39;;;;;;;76.90;38.60;;;;;;;10.66;96.94;99622.56;109258;275;38717;-68
2023/10/22 02:10:14;;;;;;;66.80;34.60;;;;;;;10.71;97.31;99623.18;109018;276;38493;-67
2023/10/22 02:12:47;;;;;;;67.50;34.70;;;;;;;10.75;97.23;99619.12;109419;275;39046;-70
2023/10/22 02:15:23;;;;;;;56.60;31.10;;;;;;;10.76;96.92;99619.20;109356;275;38214;-70
2023/10/22 02:17:57;;;;;;;46.40;26.90;;;;;;;10.76;96.64;99622.52;109348;275;38288;-70
2023/10/22 02:20:30;;;;;;;33.50;22.60;;;;;;;10.77;96.74;99625.81;108661;275;900362;-72
2023/10/22 02:23:10;;;;;;;18.50;15.90;;;;;;;10.75;96.55;99620.31;109337;275;38341;-67
2023/10/22 02:25:50;;;;;;;16.80;14.70;;;;;;;10.70;96.59;99609.61;109281;275;38886;-67
2023/10/22 02:28:25;;;;;;;16.80;15.10;;;;;;;10.69;96.76;99603.20;109353;275;38640;-68
2023/10/22 02:31:00;;;;;;;16.60;15.00;;;;;;;10.68;96.81;99602.05;109320;275;38216;-68
2023/10/22 02:33:45;;;;;;;15.90;14.20;;;;;;;10.63;97.07;99597.73;109244;275;176240;-68
2023/10/22 02:36:20;;;;;;;15.30;13.70;;;;;;;10.61;97.30;99598.89;109244;275;38567;-67
2023/10/22 02:38:57;;;;;;;16.00;13.90;;;;;;;10.65;97.43;99604.95;109238;275;38864;-67
2023/10/22 02:41:40;;;;;;;15.30;13.80;;;;;;;10.68;97.58;99604.60;109248;275;38734;-67
2023/10/22 02:44:20;;;;;;;15.10;13.70;;;;;;;10.71;97.49;99599.61;109252;275;39388;-67
2023/10/22 02:46:55;;;;;;;14.30;12.60;;;;;;;10.66;97.28;99592.17;108353;275;899075;-68
2023/10/22 02:49:30;;;;;;;14.30;12.80;;;;;;;10.63;97.40;99596.50;108642;275;625677;-67
2023/10/22 02:52:07;;;;;;;14.10;12.80;;;;;;;10.66;97.76;99603.84;109178;275;39399;-68
2023/10/22 02:54:44;;;;;;;14.80;13.40;;;;;;;10.71;97.90;99607.11;109300;275;38280;-66
2023/10/22 02:57:24;;;;;;;15.10;13.50;;;;;;;10.77;98.41;99614.65;109217;275;38457;-67
2023/10/22 03:00:09;;;;;;;14.20;12.80;;;;;;;10.79;98.28;99618.02;109206;275;38189;-67
2023/10/22 03:02:50;;;;;;;13.90;12.60;;;;;;;10.81;98.44;99623.48;109202;275;39346;-69
2023/10/22 03:05:27;;;;;;;13.50;12.20;;;;;;;10.82;98.35;99622.23;109230;275;38221;-70
2023/10/22 03:08:03;;;;;;;14.00;12.50;;;;;;;10.85;98.39;99632.20;109247;275;38715;-69
2023/10/22 03:10:40;;;;;;;17.60;14.10;;;;;;;10.88;98.29;99631.57;109193;275;38351;-71
2023/10/22 03:13:17;;;;;;;17.20;15.10;;;;;;;10.87;98.41;99647.29;109200;275;38560;-67
2023/10/22 03:15:57;;;;;;;26.40;17.50;;;;;;;10.92;98.65;99647.73;109143;275;38738;-67
2023/10/22 03:19:04;;;;;;;22.40;16.90;;;;;;;10.97;98.29;99649.05;108941;277;38467;-66
2023/10/22 03:21:43;;;;;;;18.80;14.70;;;;;;;11.01;98.51;99647.61;108980;277;38588;-66
2023/10/22 03:24:24;;;;;;;16.10;14.30;;;;;;;11.07;98.83;99649.89;108965;277;39485;-66
2023/10/22 03:27:10;;;;;;;14.20;12.30;;;;;;;11.09;98.61;99658.88;108924;277;38439;-67
2023/10/22 03:29:55;;;;;;;12.30;11.00;;;;;;;11.07;98.51;99657.98;108955;277;38156;-66
2023/10/22 03:32:33;;;;;;;12.20;10.60;;;;;;;11.10;98.73;99652.54;108960;277;38729;-69
2023/10/22 03:35:12;;;;;;;10.90;9.80;;;;;;;11.16;98.72;99645.10;108934;277;39680;-67
2023/10/22 03:37:55;;;;;;;11.50;10.40;;;;;;;11.16;98.44;99644.74;108944;277;39609;-67
2023/10/22 03:40:34;;;;;;;10.70;9.70;;;;;;;11.16;98.51;99651.58;108937;277;38115;-67
2023/10/22 03:43:12;;;;;;;10.00;8.50;;;;;;;11.16;98.22;99650.52;109002;277;38251;-67
2023/10/22 03:45:48;;;;;;;9.00;8.10;;;;;;;11.15;98.21;99645.34;108952;277;38419;-67
2023/10/22 03:48:27;;;;;;;9.10;8.20;;;;;;;11.13;98.10;99627.27;108982;277;38439;-67
2023/10/22 03:51:09;;;;;;;9.40;8.60;;;;;;;11.13;98.46;99611.23;108963;277;37889;-67
2023/10/22 03:53:52;;;;;;;9.80;8.50;;;;;;;11.12;98.51;99609.69;108970;277;38530;-66
2023/10/22 03:56:34;;;;;;;13.90;10.00;;;;;;;11.13;98.50;99602.15;108950;277;38133;-67
2023/10/22 03:59:10;;;;;;;;;;;;;;;11.13;98.45;99590.98;109010;277;39435;-66
2023/10/22 04:01:51;;;;;;;7.10;6.40;;;;;;;11.08;98.52;99593.17;108928;277;38183;-67
2023/10/22 04:04:29;;;;;;;7.30;6.50;;;;;;;11.05;98.67;99604.30;109017;277;38178;-70
2023/10/22 04:07:05;;;;;;;6.20;5.70;;;;;;;11.05;98.90;99593.15;108972;277;38264;-69
2023/10/22 04:09:41;;;;;;;6.90;6.20;;;;;;;11.03;98.76;99582.21;108984;277;39276;-67
2023/10/22 04:12:29;;;;;;;5.90;5.40;;;;;;;11.03;98.77;99587.80;108955;277;38740;-66
2023/10/22 04:15:13;;;;;;;5.90;5.40;;;;;;;11.06;99.05;99584.19;108965;277;38139;-66
2023/10/22 04:17:52;;;;;;;6.00;5.50;;;;;;;11.08;98.92;99579.70;109039;275;38506;-67
2023/10/22 04:20:32;;;;;;;7.30;5.60;;;;;;;11.09;98.95;99577.72;109199;275;39151;-66
2023/10/22 04:23:08;;;;;;;6.30;5.20;;;;;;;11.08;98.92;99562.76;109154;275;38215;-69
2023/10/22 04:25:47;;;;;;;5.20;4.80;;;;;;;11.05;98.80;99560.15;109198;275;38340;-69
2023/10/22 04:28:28;;;;;;;5.40;4.90;;;;;;;11.03;98.86;99566.55;109205;275;38949;-69
2023/10/22 04:31:08;;;;;;;5.60;5.10;;;;;;;11.09;99.54;99564.98;109174;275;38467;-69
2023/10/22 04:33:47;;;;;;;5.40;4.90;;;;;;;11.15;99.64;99556.13;108975;275;175415;-66
2023/10/22 04:36:26;;;;;;;6.60;4.60;;;;;;;11.18;99.81;99553.52;109174;275;38137;-67
2023/10/22 04:39:06;;;;;;;6.00;4.80;;;;;;;11.18;99.44;99548.99;109205;275;38908;-67
2023/10/22 04:41:49;;;;;;;4.90;4.50;;;;;;;11.22;99.82;99547.36;109155;275;38436;-67
2023/10/22 04:44:28;;;;;;;4.80;4.40;;;;;;;11.28;99.90;99550.17;109194;275;39402;-66
2023/10/22 04:47:06;;;;;;;5.10;4.60;;;;;;;11.32;99.74;99543.48;109123;275;38664;-66
2023/10/22 04:49:43;;;;;;;4.30;3.90;;;;;;;11.31;99.56;99537.06;109226;275;38264;-68
2023/10/22 04:52:30;;;;;;;3.80;3.50;;;;;;;11.29;99.27;99534.92;109187;275;38738;-65
2023/10/22 04:55:06;;;;;;;3.40;3.10;;;;;;;11.29;99.42;99532.68;109150;275;38295;-67
2023/10/22 04:57:47;;;;;;;4.40;3.30;;;;;;;11.29;99.42;99539.66;109220;275;38231;-68
2023/10/22 05:00:22;;;;;;;3.40;3.00;;;;;;;11.30;99.66;99539.96;109185;275;38339;-66
2023/10/22 05:03:00;;;;;;;3.20;2.90;;;;;;;11.33;99.90;99540.66;109203;275;38679;-67
2023/10/22 05:05:39;;;;;;;3.80;3.30;;;;;;;11.32;99.75;99534.92;109170;275;39616;-66
2023/10/22 05:08:16;;;;;;;3.80;3.30;;;;;;;11.34;99.88;99536.26;109204;275;39635;-66
2023/10/22 05:10:55;;;;;;;5.30;3.20;;;;;;;11.36;99.71;99531.55;109130;275;39567;-67
2023/10/22 05:13:32;;;;;;;3.10;2.90;;;;;;;11.35;99.93;99529.71;109203;275;38470;-69
2023/10/22 05:16:07;;;;;;;3.50;2.80;;;;;;;11.33;99.97;99523.18;109189;275;38476;-71
2023/10/22 05:18:41;;;;;;;4.70;2.70;;;;;;;11.37;100.00;99525.08;109213;275;38265;-67
2023/10/22 05:21:21;;;;;;;3.00;2.60;;;;;;;11.42;100.00;99524.09;109186;275;38245;-67
2023/10/22 05:23:56;;;;;;;3.20;2.90;;;;;;;11.45;100.00;99523.63;109260;275;38563;-71
2023/10/22 05:26:30;;;;;;;2.90;2.60;;;;;;;11.44;100.00;99520.32;109198;275;38872;-71
2023/10/22 05:29:05;;;;;;;2.40;2.20;;;;;;;11.44;100.00;99519.98;109174;275;38459;-69
2023/10/22 05:31:41;;;;;;;2.20;2.00;;;;;;;11.46;100.00;99523.18;109159;275;39033;-69
2023/10/22 05:34:15;;;;;;;2.20;2.00;;;;;;;11.49;100.00;99523.03;109234;275;38531;-66
2023/10/22 05:36:51;;;;;;;2.00;1.90;;;;;;;11.52;100.00;99523.53;109172;275;38272;-68
2023/10/22 05:39:32;;;;;;;4.20;3.00;;;;;;;11.57;100.00;99528.15;109209;275;39646;-69
2023/10/22 05:42:11;;;;;;;2.50;1.90;;;;;;;11.60;100.00;99526.27;109137;275;38748;-70
2023/10/22 05:44:46;;;;;;;1.80;1.60;;;;;;;11.65;100.00;99523.38;109357;275;38263;-69
2023/10/22 05:47:20;;;;;;;1.70;1.50;;;;;;;11.66;100.00;99521.21;108647;275;897550;-70
2023/10/22 05:50:11;;;;;;;1.70;1.60;;;;;;;11.69;100.00;99505.69;109307;275;38649;-67
2023/10/22 05:52:50;;;;;;;1.70;1.60;;;;;;;11.74;100.00;99508.89;109360;275;39890;-68
2023/10/22 05:55:28;;;;;;;2.40;1.90;;;;;;;11.76;100.00;99507.37;109271;275;38139;-69
2023/10/22 05:58:03;;;;;;;2.00;1.50;;;;;;;11.77;100.00;99500.66;109254;275;39960;-69
2023/10/22 06:00:42;;;;;;;2.00;1.70;;;;;;;11.79;100.00;99500.38;109304;275;38336;-69
2023/10/22 06:03:17;;;;;;;1.50;1.40;;;;;;;11.81;100.00;99491.19;109193;275;175479;-70
2023/10/22 06:05:51;;;;;;;2.30;1.90;;;;;;;11.82;100.00;99489.04;109326;275;38441;-70
2023/10/22 06:08:28;;;;;;;1.80;1.70;;;;;;;11.84;100.00;99485.27;109368;275;38483;-67
2023/10/22 06:11:06;;;;;;;1.90;1.70;;;;;;;11.83;100.00;99489.65;109335;275;39981;-66
2023/10/22 06:13:45;;;;;;;2.60;1.90;;;;;;;11.81;100.00;99485.63;109416;275;40319;-69
2023/10/22 06:16:19;;;;;;;2.90;2.20;;;;;;;11.78;100.00;99478.40;109469;275;38915;-70
2023/10/22 06:18:56;;;;;;;2.20;2.00;;;;;;;11.77;100.00;99472.84;109433;275;38476;-67
2023/10/22 06:21:32;;;;;;;2.20;2.00;;;;;;;11.73;100.00;99472.56;109353;275;39185;-67
2023/10/22 06:24:13;;;;;;;2.10;1.90;;;;;;;11.73;100.00;99478.88;109327;275;38264;-67
2023/10/22 06:26:51;;;;;;;2.00;1.80;;;;;;;11.76;100.00;99478.70;109389;275;38233;-66
2023/10/22 06:29:30;;;;;;;2.10;1.90;;;;;;;11.79;100.00;99473.95;109361;275;38572;-69
2023/10/22 06:32:07;;;;;;;3.30;2.10;;;;;;;11.82;100.00;99466.31;109393;275;39367;-70
2023/10/22 06:34:45;;;;;;;;;;;;;;;11.86;100.00;99461.02;109088;275;38458;-67
2023/10/22 06:37:26;;;;;;;3.00;2.50;;;;;;;11.85;100.00;99458.48;109252;275;38291;-66
2023/10/22 06:40:04;;;;;;;2.70;2.20;;;;;;;11.85;100.00;99458.95;109233;275;39448;-67
2023/10/22 06:42:45;;;;;;;2.30;2.10;;;;;;;11.84;100.00;99454.33;109263;275;38405;-69
2023/10/22 06:45:19;;;;;;;2.30;2.10;;;;;;;11.88;100.00;99448.70;109048;275;38206;-71
2023/10/22 06:47:57;;;;;;;2.30;2.10;;;;;;;11.92;100.00;99442.89;109301;275;39691;-66
2023/10/22 06:50:37;;;;;;;2.80;2.50;;;;;;;11.96;100.00;99443.34;109230;275;38209;-66
2023/10/22 06:53:16;;;;;;;3.20;2.90;;;;;;;11.98;100.00;99438.64;109281;275;39071;-66
2023/10/22 06:55:51;;;;;;;3.50;2.80;;;;;;;12.01;100.00;99436.93;109235;275;38161;-66
2023/10/22 06:58:31;;;;;;;4.30;2.60;;;;;;;12.03;100.00;99436.44;109239;275;39262;-66
2023/10/22 07:01:17;;;;;;;2.80;2.50;;;;;;;12.03;100.00;99432.60;109226;275;38772;-66
2023/10/22 07:03:57;;;;;;;2.70;2.50;;;;;;;12.05;100.00;99430.71;109210;275;38242;-66
2023/10/22 07:06:33;;;;;;;2.80;2.60;;;;;;;12.03;100.00;99424.55;109203;275;38252;-66
2023/10/22 07:09:09;;;;;;;3.20;2.40;;;;;;;12.03;100.00;99417.55;109041;275;39668;-71
2023/10/22 07:11:47;;;;;;;2.80;2.50;;;;;;;12.05;100.00;99409.04;109212;275;38893;-70
2023/10/22 07:14:26;;;;;;;3.00;2.20;;;;;;;12.09;100.00;99407.96;109254;275;39276;-68
2023/10/22 07:17:05;;;;;;;3.10;2.40;;;;;;;12.12;100.00;99395.38;109165;275;38480;-69
2023/10/22 07:19:42;;;;;;;3.30;2.70;;;;;;;12.15;100.00;99387.66;109224;275;38212;-70
2023/10/22 07:22:16;;;;;;;3.30;3.00;;;;;;;12.18;100.00;99379.48;109043;275;175364;-70
2023/10/22 07:24:52;;;;;;;2.80;2.60;;;;;;;12.20;100.00;99370.08;109075;275;38984;-69
2023/10/22 07:27:27;;;;;;;2.50;2.30;;;;;;;12.22;100.00;99367.15;109179;275;38490;-68
2023/10/22 07:30:04;;;;;;;2.80;2.30;;;;;;;12.22;100.00;99365.05;109182;275;39769;-69
2023/10/22 07:32:39;;;;;;;2.30;2.10;;;;;;;12.22;100.00;99361.36;109216;275;38759;-67
2023/10/22 07:35:16;;;;;;;2.80;2.20;;;;;;;12.23;100.00;99356.42;109194;275;38943;-67
2023/10/22 07:37:53;;;;;;;2.50;2.30;;;;;;;12.25;100.00;99350.90;109207;275;38340;-67
2023/10/22 07:40:42;;;;;;;2.40;2.20;;;;;;;12.25;100.00;99347.85;109151;275;38231;-67
2023/10/22 07:43:22;;;;;;;1.90;1.70;;;;;;;12.25;100.00;99343.48;109170;275;39633;-66
2023/10/22 07:46:01;;;;;;;;;;;;;;;12.28;100.00;99344.02;109193;275;38394;-66
2023/10/22 07:48:40;;;;;;;2.10;1.90;;;;;;;12.28;100.00;99345.98;109216;275;38714;-70
2023/10/22 07:51:20;;;;;;;1.80;1.60;;;;;;;12.29;100.00;99346.02;109210;275;38459;-70
2023/10/22 07:53:54;;;;;;;2.30;2.10;;;;;;;12.32;100.00;99347.27;109251;275;39360;-71
2023/10/22 07:56:32;;;;;;;1.70;1.60;;;;;;;12.35;100.00;99350.92;109229;275;38480;-67
2023/10/22 07:59:12;;;;;;;1.90;1.70;;;;;;;12.35;100.00;99351.44;109195;275;40148;-67
2023/10/22 08:01:49;;;;;;;1.40;1.30;;;;;;;12.33;100.00;99346.86;109165;275;38300;-67
2023/10/22 08:04:29;;;;;;;1.90;1.70;;;;;;;12.32;100.00;99350.58;109179;275;38717;-67
2023/10/22 08:07:04;;;;;;;1.60;1.50;;;;;;;12.33;100.00;99352.63;109134;275;38249;-66
2023/10/22 08:09:47;;;;;;;1.60;1.50;;;;;;;12.36;100.00;99352.81;109236;275;40884;-67
2023/10/22 08:12:28;;;;;;;1.80;1.70;;;;;;;12.34;100.00;99352.92;109106;275;39379;-67
2023/10/22 08:15:05;;;;;;;1.70;1.60;;;;;;;12.33;100.00;99353.53;109031;275;39486;-66
2023/10/22 08:17:48;;;;;;;1.90;1.80;;;;;;;12.30;100.00;99345.45;109015;275;39450;-66
2023/10/22 08:20:27;;;;;;;1.80;1.60;;;;;;;12.29;100.00;99345.03;109153;275;38290;-66
2023/10/22 08:23:06;;;;;;;1.50;1.40;;;;;;;12.26;100.00;99344.64;109158;275;38646;-69
2023/10/22 08:25:40;;;;;;;1.70;1.60;;;;;;;12.28;100.00;99340.56;109175;275;38718;-70
2023/10/22 08:28:18;;;;;;;1.80;1.60;;;;;;;12.32;100.00;99336.98;109181;275;38201;-67
2023/10/22 08:30:59;;;;;;;2.00;1.80;;;;;;;12.29;100.00;99333.11;109133;275;38453;-67
2023/10/22 08:33:34;;;;;;;1.90;1.70;;;;;;;12.32;100.00;99335.57;109164;275;40039;-70
2023/10/22 08:36:12;;;;;;;2.10;1.90;;;;;;;12.37;100.00;99339.08;109209;275;38775;-72
2023/10/22 08:38:51;;;;;;;1.60;1.50;;;;;;;12.40;100.00;99336.27;109190;275;38165;-67
2023/10/22 08:41:33;;;;;;;;;;;;;;;12.41;100.00;99331.48;109179;275;38275;-66
2023/10/22 08:44:09;;;;;;;1.80;1.70;;;;;;;12.38;100.00;99326.61;109200;275;38797;-70
2023/10/22 08:46:44;;;;;;;2.10;1.90;;;;;;;12.37;100.00;99324.91;109205;275;38735;-70
2023/10/22 08:49:19;;;;;;;1.60;1.50;;;;;;;12.37;100.00;99325.96;109183;275;39165;-67
2023/10/22 08:52:00;;;;;;;1.50;1.40;;;;;;;12.40;100.00;99320.73;109139;275;38779;-67
2023/10/22 08:54:36;;;;;;;2.10;1.80;;;;;;;12.41;100.00;99319.48;109171;275;38175;-70
2023/10/22 08:57:12;;;;;;;1.80;1.60;;;;;;;12.41;100.00;99318.92;109207;275;38992;-70
2023/10/22 08:59:47;;;;;;;1.60;1.50;;;;;;;12.45;100.00;99321.84;109218;275;38148;-66
2023/10/22 09:02:28;;;;;;;1.70;1.60;;;;;;;12.47;100.00;99325.20;109142;275;38930;-67
2023/10/22 09:05:12;;;;;;;1.90;1.70;;;;;;;12.46;100.00;99327.92;109161;268;38162;-70
2023/10/22 09:07:59;;;;;;;3.80;2.30;;;;;;;12.45;100.00;99324.80;109115;275;39445;-70
2023/10/22 09:10:36;;;;;;;3.00;2.70;;;;;;;12.43;100.00;99323.53;109192;275;38148;-70
2023/10/22 09:13:25;;;;;;;3.40;2.90;;;;;;;12.40;100.00;99317.40;109177;275;39423;-69
2023/10/22 09:16:03;;;;;;;6.30;3.40;;;;;;;12.40;100.00;99310.55;109158;275;38353;-67
2023/10/22 09:18:49;;;;;;;3.70;2.90;;;;;;;12.45;100.00;99305.36;109247;275;38190;-68
2023/10/22 09:21:43;;;;;;;2.60;2.40;;;;;;;12.48;100.00;99309.55;109405;275;38706;-68
2023/10/22 09:24:20;;;;;;;2.10;1.90;;;;;;;12.49;100.00;99305.52;109396;275;39346;-71
2023/10/22 09:26:57;;;;;;;2.80;2.30;;;;;;;12.47;100.00;99297.22;109098;269;41438;-75
2023/10/22 09:29:32;;;;;;;2.40;1.90;;;;;;;12.48;100.00;99293.45;109084;275;40383;-71
2023/10/22 09:32:10;;;;;;;2.30;2.10;;;;;;;12.49;100.00;99292.50;109363;275;38184;-72
2023/10/22 09:34:44;;;;;;;1.90;1.80;;;;;;;12.51;100.00;99284.53;109100;276;39639;-69
2023/10/22 09:37:20;;;;;;;4.90;3.30;;;;;;;12.55;100.00;99280.42;109320;275;38632;-67
2023/10/22 09:40:02;;;;;;;3.50;2.30;;;;;;;12.59;100.00;99274.91;109342;275;38408;-67
2023/10/22 09:42:43;;;;;;;3.50;2.80;;;;;;;12.65;100.00;99269.27;109338;275;39378;-68
2023/10/22 09:45:23;;;;;;;1.90;1.70;;;;;;;12.69;100.00;99270.23;109334;275;38148;-66
2023/10/22 09:48:06;;;;;;;2.10;1.90;;;;;;;12.72;100.00;99269.89;109356;275;39381;-70
2023/10/22 09:50:45;;;;;;;2.30;2.00;;;;;;;12.72;100.00;99268.85;109394;275;38206;-71
2023/10/22 09:53:19;;;;;;;;;;;;;;;12.72;100.00;99266.02;109412;275;39573;-69
2023/10/22 09:55:53;;;;;;;2.70;2.30;;;;;;;12.71;100.00;99265.06;109022;275;38598;-69
2023/10/22 09:58:33;;;;;;;2.60;1.90;;;;;;;12.74;100.00;99261.38;109381;275;38985;-68
2023/10/22 10:01:10;;;;;;;2.20;2.00;;;;;;;12.76;100.00;99261.56;109383;275;38443;-69
2023/10/22 10:03:46;;;;;;;2.10;1.90;;;;;;;12.78;100.00;99254.30;109367;275;39079;-71
2023/10/22 10:06:26;;;;;;;2.90;2.20;;;;;;;12.77;100.00;99249.61;109365;275;40944;-72
2023/10/22 10:09:13;;;;;;;1.90;1.70;;;;;;;12.80;100.00;99249.23;109385;275;38280;-71
2023/10/22 10:11:54;;;;;;;2.10;1.90;;;;;;;12.87;100.00;99248.94;109365;275;38630;-71
2023/10/22 10:14:44;;;;;;;2.10;1.90;;;;;;;12.93;100.00;99244.06;109329;275;38296;-68
2023/10/22 10:17:38;;;;;;;2.30;2.10;;;;;;;12.93;99.91;99244.17;109418;275;39300;-70
2023/10/22 10:20:31;;;;;;;2.20;1.90;;;;;;;12.86;99.82;99238.15;109353;275;39314;-68
2023/10/22 10:23:24;;;;;;;3.20;2.10;;;;;;;12.84;99.92;99233.00;109401;275;38170;-72
2023/10/22 10:26:22;;;;;;;2.10;1.80;;;;;;;12.87;99.95;99227.42;109348;275;39835;-71
2023/10/22 10:28:58;;;;;;;2.60;2.40;;;;;;;12.86;99.98;99224.55;109367;275;38436;-72
2023/10/22 10:31:38;;;;;;;2.20;2.00;;;;;;;12.86;100.00;99219.28;109314;275;38181;-70
2023/10/22 10:34:23;;;;;;;2.30;2.10;;;;;;;12.86;100.00;99218.88;109328;275;38152;-68
2023/10/22 10:37:12;;;;;;;2.60;2.40;;;;;;;12.86;100.00;99213.30;109299;275;38164;-68
2023/10/22 10:39:54;;;;;;;2.30;1.90;;;;;;;12.92;100.00;99209.42;109240;275;38279;-70
2023/10/22 10:42:53;;;;;;;2.50;2.30;;;;;;;12.96;100.00;99204.30;109199;275;38236;-72
2023/10/22 10:45:41;;;;;;;10.60;9.50;;;;;;;12.99;100.00;99204.21;109229;275;38727;-68
2023/10/22 10:48:47;;;;;;;6.50;5.80;;;;;;;13.03;100.00;99204.70;107895;275;1756871;-68
2023/10/22 10:51:24;;;;;;;3.10;2.80;;;;;;;13.05;100.00;99200.69;109121;275;39372;-68
2023/10/22 10:54:23;;;;;;;2.50;2.30;;;;;;;13.09;100.00;99199.00;109246;275;38204;-67
2023/10/22 10:57:09;;;;;;;2.40;2.20;;;;;;;13.11;100.00;99196.96;109207;275;38134;-67
2023/10/22 10:59:55;;;;;;;2.50;2.30;;;;;;;13.12;100.00;99193.91;109238;275;39093;-78
2023/10/22 11:02:44;;;;;;;2.50;2.30;;;;;;;13.12;100.00;99191.24;109261;275;38154;-70
2023/10/22 11:05:39;;;;;;;2.80;2.50;;;;;;;13.15;100.00;99192.83;109193;275;39390;-70
2023/10/22 11:08:20;;;;;;;2.60;2.40;;;;;;;13.14;100.00;99194.31;109248;275;38443;-67
2023/10/22 11:11:01;;;;;;;2.50;2.30;;;;;;;13.15;100.00;99194.19;109184;275;38299;-67
2023/10/22 11:13:39;;;;;;;2.70;2.40;;;;;;;13.16;100.00;99192.05;109159;275;38302;-69
2023/10/22 11:16:13;;;;;;;2.60;2.30;;;;;;;13.15;100.00;99188.25;109197;275;39926;-71
2023/10/22 11:19:00;;;;;;;2.60;2.30;;;;;;;13.17;100.00;99186.52;109242;275;38597;-69
2023/10/22 11:21:38;;;;;;;2.30;2.10;;;;;;;13.21;100.00;99187.02;109232;275;38648;-68
2023/10/22 11:24:12;;;;;;;;;;;;;;;13.26;100.00;99185.14;109243;275;38934;-70
2023/10/22 11:26:51;;;;;;;2.70;2.50;;;;;;;13.26;100.00;99188.80;109164;275;39497;-71
2023/10/22 11:29:28;;;;;;;2.80;2.60;;;;;;;13.25;100.00;99185.18;109180;275;38923;-70
2023/10/22 11:32:11;;;;;;;2.80;2.60;;;;;;;13.28;100.00;99189.20;109196;275;38474;-70
2023/10/22 11:35:07;;;;;;;2.50;2.30;;;;;;;13.26;100.00;99188.93;109239;275;38171;-68
2023/10/22 11:37:47;;;;;;;3.60;2.70;;;;;;;13.25;100.00;99192.71;109134;275;38180;-68
2023/10/22 11:40:36;;;;;;;3.00;2.80;;;;;;;13.23;100.00;99190.40;109148;275;38427;-67
2023/10/22 11:43:18;;;;;;;;;;;;;;;13.19;99.82;99191.86;109162;275;38207;-67
2023/10/22 11:46:02;;;;;;;2.20;2.00;;;;;;;13.09;99.77;99189.73;109190;275;38155;-66
2023/10/22 11:48:45;;;;;;;2.70;2.30;;;;;;;13.07;99.98;99187.77;109030;275;39698;-70
2023/10/22 11:51:19;;;;;;;2.40;1.80;;;;;;;13.09;100.00;99188.30;109190;275;38130;-66
2023/10/22 11:54:07;;;;;;;2.30;2.10;;;;;;;13.09;99.75;99189.39;109197;275;38388;-66
2023/10/22 11:56:57;;;;;;;2.40;2.20;;;;;;;13.05;99.72;99188.81;109148;275;39565;-66
2023/10/22 11:59:41;;;;;;;2.50;2.10;;;;;;;13.06;99.96;99189.96;109135;275;39197;-68
2023/10/22 12:02:26;;;;;;;2.20;2.10;;;;;;;13.01;99.29;99190.81;109151;275;38854;-70
2023/10/22 12:05:12;;;;;;;1.80;1.50;;;;;;;12.97;99.40;99189.14;108965;275;39273;-69
2023/10/22 12:07:51;;;;;;;1.60;1.50;;;;;;;12.94;99.64;99190.58;109240;275;38181;-66
2023/10/22 12:10:30;;;;;;;1.50;1.40;;;;;;;12.94;99.45;99184.83;109190;275;38345;-68
2023/10/22 12:13:18;;;;;;;1.80;1.40;;;;;;;12.88;99.03;99187.64;109168;275;38432;-68
2023/10/22 12:15:55;;;;;;;2.00;1.60;;;;;;;12.84;99.08;99192.98;109209;275;38966;-68
2023/10/22 12:18:31;;;;;;;2.80;2.00;;;;;;;12.81;99.11;99191.41;109167;275;38482;-71
2023/10/22 12:21:06;;;;;;;2.20;1.70;;;;;;;12.80;99.60;99193.77;109072;275;175263;-70
2023/10/22 12:23:43;;;;;;;2.70;1.90;;;;;;;12.80;99.66;99194.33;109151;275;38760;-66